createdAt,value
2022-09-24T00:01:57.764Z,46.76
2022-09-24T00:04:03.443Z,46.51
2022-09-24T00:06:06.671Z,46.62
2022-09-24T00:08:09.035Z,46.67
2022-09-24T00:10:10.785Z,46.83
2022-09-24T00:12:13.206Z,46.86
2022-09-24T00:14:16.339Z,46.69
2022-09-24T00:16:20.506Z,46.74
2022-09-24T00:18:22.784Z,46.59
2022-09-24T00:20:24.518Z,46.84
2022-09-24T00:22:26.069Z,46.91
2022-09-24T00:24:46.336Z,46.96
2022-09-24T00:26:51.073Z,46.74
2022-09-24T00:28:53.080Z,46.80
2022-09-24T00:30:55.458Z,46.99
2022-09-24T00:32:56.938Z,47.00
2022-09-24T00:34:59.659Z,47.02
2022-09-24T00:37:01.361Z,47.15
2022-09-24T00:39:04.773Z,47.23
2022-09-24T00:41:06.472Z,47.25
2022-09-24T00:43:28.178Z,47.28
2022-09-24T00:45:31.109Z,47.08
2022-09-24T00:47:39.315Z,47.04
2022-09-24T00:49:44.727Z,47.22
2022-09-24T00:51:50.403Z,47.21
2022-09-24T00:53:56.634Z,47.01
2022-09-24T00:55:59.840Z,47.09
2022-09-24T00:58:04.104Z,47.17
2022-09-24T01:00:07.435Z,47.21
2022-09-24T01:02:09.080Z,47.27
2022-09-24T01:04:14.414Z,47.37
2022-09-24T01:06:16.167Z,47.33
2022-09-24T01:08:19.182Z,47.23
2022-09-24T01:10:49.497Z,47.26
2022-09-24T01:13:03.026Z,47.28
2022-09-24T01:15:04.477Z,46.94
2022-09-24T01:17:25.314Z,47.33
2022-09-24T01:20:07.310Z,47.26
2022-09-24T01:22:27.561Z,47.22
2022-09-24T01:24:38.578Z,47.38
2022-09-24T01:26:43.328Z,47.25
2022-09-24T01:29:27.028Z,47.29
2022-09-24T01:31:54.870Z,47.25
2022-09-24T01:33:58.778Z,47.34
2022-09-24T01:36:08.363Z,47.28
2022-09-24T01:38:15.071Z,47.71
2022-09-24T01:40:18.830Z,47.41
2022-09-24T01:42:23.138Z,47.40
2022-09-24T01:44:26.070Z,47.34
2022-09-24T01:46:32.092Z,47.60
2022-09-24T01:48:40.239Z,47.34
2022-09-24T01:51:05.525Z,47.95
2022-09-24T01:53:21.537Z,47.73
2022-09-24T01:55:28.393Z,47.60
2022-09-24T01:57:35.231Z,47.67
2022-09-24T01:59:42.112Z,47.69
2022-09-24T02:01:50.360Z,47.73
2022-09-24T02:03:57.678Z,47.82
2022-09-24T02:06:04.109Z,47.51
2022-09-24T02:08:11.664Z,47.84
2022-09-24T02:10:17.979Z,47.74
2022-09-24T02:12:29.820Z,47.71
2022-09-24T02:14:36.539Z,47.75
2022-09-24T02:16:45.528Z,47.90
2022-09-24T02:18:50.159Z,47.70
2022-09-24T02:20:53.130Z,47.69
2022-09-24T02:22:57.315Z,47.94
2022-09-24T02:25:03.996Z,47.98
2022-09-24T02:27:05.643Z,47.93
2022-09-24T02:29:07.639Z,47.77
2022-09-24T02:31:16.533Z,48.19
2022-09-24T02:33:39.020Z,48.05
2022-09-24T02:35:40.773Z,47.76
2022-09-24T02:37:44.480Z,48.03
2022-09-24T02:39:47.418Z,47.92
2022-09-24T02:41:50.177Z,47.90
2022-09-24T02:43:52.685Z,48.08
2022-09-24T02:45:54.565Z,47.86
2022-09-24T02:47:56.104Z,47.93
2022-09-24T02:49:57.660Z,47.96
2022-09-24T02:51:59.685Z,48.02
2022-09-24T02:54:01.792Z,47.97
2022-09-24T02:56:04.077Z,48.04
2022-09-24T02:58:05.541Z,47.75
2022-09-24T03:00:07.935Z,48.06
2022-09-24T03:02:09.687Z,47.94
2022-09-24T03:04:15.551Z,48.05
2022-09-24T03:06:17.327Z,48.19
2022-09-24T03:08:20.340Z,48.13
2022-09-24T03:10:21.895Z,48.10
2022-09-24T03:12:23.480Z,48.18
2022-09-24T03:14:27.193Z,48.11
2022-09-24T03:16:28.888Z,48.16
2022-09-24T03:18:30.398Z,48.25
2022-09-24T03:20:32.242Z,48.27
2022-09-24T03:22:34.026Z,48.19
2022-09-24T03:24:35.745Z,48.24
2022-09-24T03:26:39.556Z,48.54
2022-09-24T03:28:41.445Z,48.36
2022-09-24T03:31:02.471Z,48.34
2022-09-24T03:33:04.577Z,48.53
2022-09-24T03:35:08.773Z,48.38
2022-09-24T03:37:10.366Z,48.25
2022-09-24T03:39:12.966Z,48.48
2022-09-24T03:41:16.790Z,48.61
2022-09-24T03:43:18.529Z,48.62
2022-09-24T03:45:20.070Z,48.63
2022-09-24T03:47:21.641Z,48.58
2022-09-24T03:49:23.611Z,48.43
2022-09-24T03:51:25.942Z,48.65
2022-09-24T03:53:27.528Z,48.51
2022-09-24T03:55:29.128Z,48.79
2022-09-24T03:57:30.955Z,48.67
2022-09-24T03:59:32.407Z,48.53
2022-09-24T04:01:37.317Z,48.62
2022-09-24T04:03:40.510Z,48.69
2022-09-24T04:05:42.294Z,48.78
2022-09-24T04:07:45.061Z,48.77
2022-09-24T04:09:46.643Z,48.72
2022-09-24T04:11:52.560Z,48.93
2022-09-24T04:13:54.150Z,48.85
2022-09-24T04:15:58.302Z,48.93
2022-09-24T04:18:00.093Z,49.11
2022-09-24T04:20:01.812Z,48.98
2022-09-24T04:22:03.937Z,49.08
2022-09-24T04:24:05.779Z,49.10
2022-09-24T04:26:07.370Z,49.20
2022-09-24T04:28:10.290Z,49.30
2022-09-24T04:30:15.190Z,49.36
2022-09-24T04:32:16.773Z,49.16
2022-09-24T04:34:18.336Z,49.32
2022-09-24T04:36:22.169Z,49.42
2022-09-24T04:38:24.354Z,49.22
2022-09-24T04:40:27.063Z,49.26
2022-09-24T04:42:28.695Z,49.26
2022-09-24T04:44:31.295Z,49.37
2022-09-24T04:46:37.919Z,49.37
2022-09-24T04:48:42.147Z,49.23
2022-09-24T04:50:46.357Z,49.43
2022-09-24T04:52:52.518Z,49.55
2022-09-24T04:54:54.577Z,49.74
2022-09-24T04:56:56.096Z,49.60
2022-09-24T04:58:58.752Z,49.72
2022-09-24T05:01:03.839Z,49.60
2022-09-24T05:03:05.799Z,49.65
2022-09-24T05:05:08.318Z,50.21
2022-09-24T05:07:10.414Z,49.80
2022-09-24T05:09:12.857Z,49.80
2022-09-24T05:11:14.563Z,50.01
2022-09-24T05:13:16.384Z,49.89
2022-09-24T05:15:25.577Z,49.88
2022-09-24T05:17:27.066Z,49.77
2022-09-24T05:19:28.676Z,49.91
2022-09-24T05:21:31.512Z,49.92
2022-09-24T05:23:33.109Z,50.05
2022-09-24T05:25:54.672Z,50.03
2022-09-24T05:27:57.087Z,49.85
2022-09-24T05:29:59.994Z,49.89
2022-09-24T05:32:12.297Z,50.01
2022-09-24T05:34:14.340Z,50.09
2022-09-24T05:36:19.509Z,50.13
2022-09-24T05:38:21.361Z,50.42
2022-09-24T05:40:41.399Z,50.54
2022-09-24T05:42:43.221Z,50.07
2022-09-24T05:44:47.507Z,50.44
2022-09-24T05:46:53.435Z,50.42
2022-09-24T05:48:57.933Z,50.16
2022-09-24T05:51:03.473Z,50.69
2022-09-24T05:53:06.357Z,50.44
2022-09-24T05:55:10.051Z,50.36
2022-09-24T05:57:15.613Z,50.62
2022-09-24T05:59:20.401Z,50.55
2022-09-24T06:01:22.117Z,50.59
2022-09-24T06:03:23.782Z,50.60
2022-09-24T06:05:25.655Z,50.39
2022-09-24T06:07:33.414Z,50.47
2022-09-24T06:09:35.029Z,50.36
2022-09-24T06:11:40.370Z,50.36
2022-09-24T06:13:42.614Z,50.19
2022-09-24T06:15:44.665Z,50.09
2022-09-24T06:17:47.100Z,50.45
2022-09-24T06:19:51.720Z,50.67
2022-09-24T06:21:53.272Z,50.41
2022-09-24T06:23:54.929Z,50.43
2022-09-24T06:25:57.215Z,50.61
2022-09-24T06:28:01.582Z,50.38
2022-09-24T06:30:04.874Z,50.20
2022-09-24T06:32:06.359Z,50.19
2022-09-24T06:34:08.151Z,50.18
2022-09-24T06:36:09.875Z,50.32
2022-09-24T06:38:13.972Z,49.66
2022-09-24T06:40:16.176Z,50.01
2022-09-24T06:42:17.955Z,50.06
2022-09-24T06:44:19.939Z,49.98
2022-09-24T06:46:25.954Z,49.95
2022-09-24T06:48:28.902Z,49.90
2022-09-24T06:50:32.233Z,49.68
2022-09-24T06:52:34.472Z,49.78
2022-09-24T06:54:36.125Z,50.17
2022-09-24T06:56:37.907Z,49.85
2022-09-24T06:58:39.615Z,49.75
2022-09-24T07:00:43.243Z,49.77
2022-09-24T07:02:54.500Z,50.16
2022-09-24T07:04:56.065Z,49.72
2022-09-24T07:07:16.554Z,50.02
2022-09-24T07:09:18.461Z,49.96
2022-09-24T07:11:20.320Z,50.41
2022-09-24T07:13:22.385Z,50.57
2022-09-24T07:15:24.250Z,50.71
2022-09-24T07:17:32.913Z,50.65
2022-09-24T07:19:35.532Z,50.50
2022-09-24T07:21:38.076Z,50.20
2022-09-24T07:23:40.836Z,49.98
2022-09-24T07:25:42.429Z,49.67
2022-09-24T07:27:44.170Z,49.48
2022-09-24T07:29:45.725Z,49.20
2022-09-24T07:31:47.305Z,49.25
2022-09-24T07:33:49.042Z,49.32
2022-09-24T07:35:51.099Z,49.14
2022-09-24T07:38:12.265Z,49.03
2022-09-24T07:40:14.146Z,48.71
2022-09-24T07:42:15.869Z,49.19
2022-09-24T07:44:18.217Z,49.69
2022-09-24T07:46:20.204Z,50.14
2022-09-24T07:48:21.996Z,49.91
2022-09-24T07:50:23.883Z,50.19
2022-09-24T07:52:25.724Z,50.36
2022-09-24T07:54:27.792Z,50.27
2022-09-24T07:56:32.213Z,50.39
2022-09-24T07:58:33.870Z,50.49
2022-09-24T08:00:35.626Z,50.14
2022-09-24T08:02:37.425Z,49.93
2022-09-24T08:04:39.097Z,50.01
2022-09-24T08:06:46.584Z,49.51
2022-09-24T08:08:49.789Z,49.23
2022-09-24T08:10:52.072Z,48.96
2022-09-24T08:12:54.100Z,48.96
2022-09-24T08:14:55.797Z,48.50
2022-09-24T08:16:58.592Z,48.78
2022-09-24T08:19:01.184Z,48.59
2022-09-24T08:21:12.075Z,48.49
2022-09-24T08:23:13.866Z,48.16
2022-09-24T08:25:15.650Z,48.23
2022-09-24T08:27:17.773Z,47.87
2022-09-24T08:29:19.407Z,47.73
2022-09-24T08:31:23.524Z,47.46
2022-09-24T08:33:25.273Z,47.15
2022-09-24T08:35:27.417Z,47.14
2022-09-24T08:37:29.192Z,47.04
2022-09-24T08:39:30.959Z,47.06
2022-09-24T08:41:57.152Z,46.89
2022-09-24T08:44:08.494Z,46.79
2022-09-24T08:46:37.405Z,46.62
2022-09-24T08:48:42.355Z,46.70
2022-09-24T08:50:58.223Z,46.58
2022-09-24T08:53:07.177Z,46.61
2022-09-24T08:55:23.220Z,46.44
2022-09-24T08:57:25.988Z,46.46
2022-09-24T08:59:30.862Z,46.24
2022-09-24T09:01:42.002Z,46.37
2022-09-24T09:03:48.169Z,46.16
2022-09-24T09:05:59.415Z,46.26
2022-09-24T09:08:21.343Z,45.95
2022-09-24T09:10:33.059Z,45.54
2022-09-24T09:12:38.706Z,45.44
2022-09-24T09:15:11.177Z,44.59
2022-09-24T09:17:28.971Z,43.74
2022-09-24T09:19:34.717Z,44.42
2022-09-24T09:21:42.330Z,44.32
2022-09-24T09:23:48.876Z,44.26
2022-09-24T09:25:56.145Z,44.11
2022-09-24T09:28:07.500Z,44.18
2022-09-24T09:30:21.902Z,43.59
2022-09-24T09:32:59.233Z,43.65
2022-09-24T09:35:40.492Z,43.38
2022-09-24T09:37:58.611Z,42.97
2022-09-24T09:40:32.179Z,43.26
2022-09-24T09:42:42.775Z,43.41
2022-09-24T09:44:46.174Z,43.53
2022-09-24T09:47:01.292Z,42.89
2022-09-24T09:49:07.354Z,42.81
2022-09-24T09:51:21.391Z,43.17
2022-09-24T09:53:26.857Z,43.02
2022-09-24T09:55:33.099Z,43.03
2022-09-24T09:57:36.659Z,42.78
2022-09-24T09:59:38.836Z,42.65
2022-09-24T10:01:43.125Z,43.23
2022-09-24T10:03:44.785Z,43.32
2022-09-24T10:06:00.025Z,43.12
2022-09-24T10:08:01.985Z,43.21
2022-09-24T10:10:21.235Z,42.99
2022-09-24T10:12:24.177Z,43.34
2022-09-24T10:14:25.827Z,43.35
2022-09-24T10:16:27.540Z,43.11
2022-09-24T10:18:43.780Z,42.71
2022-09-24T10:20:48.438Z,42.28
2022-09-24T10:22:53.343Z,42.35
2022-09-24T10:24:57.472Z,41.96
2022-09-24T10:26:59.224Z,41.87
2022-09-24T10:29:20.235Z,42.22
2022-09-24T10:31:25.426Z,42.04
2022-09-24T10:33:35.060Z,42.21
2022-09-24T10:35:38.744Z,42.17
2022-09-24T10:37:50.817Z,41.83
2022-09-24T10:40:13.545Z,42.07
2022-09-24T10:42:26.968Z,41.73
2022-09-24T10:44:36.869Z,42.03
2022-09-24T10:46:38.547Z,42.14
2022-09-24T10:48:49.793Z,42.01
2022-09-24T10:51:29.586Z,42.08
2022-09-24T10:53:47.794Z,42.22
2022-09-24T10:56:08.046Z,42.01
2022-09-24T10:58:41.510Z,41.65
2022-09-24T11:01:06.703Z,41.87
2022-09-24T11:03:29.569Z,42.05
2022-09-24T11:05:35.894Z,42.07
2022-09-24T11:07:56.534Z,41.95
2022-09-24T11:10:22.042Z,42.42
2022-09-24T11:12:54.439Z,42.49
2022-09-24T11:15:11.884Z,42.42
2022-09-24T11:17:40.032Z,42.32
2022-09-24T11:20:27.855Z,42.51
2022-09-24T11:22:51.698Z,42.39
2022-09-24T11:25:02.781Z,42.26
2022-09-24T11:27:25.507Z,42.23
2022-09-24T11:29:47.838Z,42.41
2022-09-24T11:32:00.784Z,42.02
2022-09-24T11:34:14.255Z,42.11
2022-09-24T11:36:52.682Z,41.87
2022-09-24T11:39:23.142Z,42.03
2022-09-24T11:41:49.689Z,42.22
2022-09-24T11:44:03.645Z,42.16
2022-09-24T11:46:40.515Z,42.13
2022-09-24T11:49:24.902Z,42.11
2022-09-24T11:51:52.648Z,42.37
2022-09-24T11:54:20.843Z,42.40
2022-09-24T11:56:30.189Z,42.21
2022-09-24T11:58:36.711Z,42.66
2022-09-24T12:00:49.446Z,42.56
2022-09-24T12:02:59.192Z,42.57
2022-09-24T12:05:09.298Z,42.80
2022-09-24T12:07:15.293Z,42.43
2022-09-24T12:09:25.060Z,42.71
2022-09-24T12:11:57.246Z,42.43
2022-09-24T12:14:20.002Z,42.37
2022-09-24T12:16:26.494Z,42.12
2022-09-24T12:18:50.688Z,42.17
2022-09-24T12:20:57.086Z,41.79
2022-09-24T12:23:21.628Z,41.78
2022-09-24T12:25:23.344Z,41.79
2022-09-24T12:27:44.945Z,41.94
2022-09-24T12:30:19.406Z,41.74
2022-09-24T12:32:55.043Z,41.71
2022-09-24T12:35:24.984Z,42.03
2022-09-24T12:37:34.661Z,41.63
2022-09-24T12:39:44.511Z,41.52
2022-09-24T12:42:05.465Z,41.61
2022-09-24T12:44:10.301Z,41.38
2022-09-24T12:46:28.756Z,41.17
2022-09-24T12:48:37.277Z,41.58
2022-09-24T12:50:39.710Z,41.07
2022-09-24T12:52:43.328Z,41.26
2022-09-24T12:54:56.634Z,41.15
2022-09-24T12:57:07.199Z,41.52
2022-09-24T12:59:24.351Z,41.36
2022-09-24T13:01:32.065Z,41.15
2022-09-24T13:03:44.610Z,41.02
2022-09-24T13:05:48.659Z,41.65
2022-09-24T13:08:24.722Z,41.09
2022-09-24T13:10:32.054Z,41.56
2022-09-24T13:12:33.817Z,41.54
2022-09-24T13:14:35.598Z,41.34
2022-09-24T13:16:39.827Z,41.76
2022-09-24T13:18:43.544Z,41.68
2022-09-24T13:20:59.943Z,41.28
2022-09-24T13:23:20.466Z,41.28
2022-09-24T13:25:24.935Z,41.25
2022-09-24T13:27:31.775Z,41.47
2022-09-24T13:29:38.739Z,41.40
2022-09-24T13:31:47.666Z,40.90
2022-09-24T13:34:08.320Z,40.67
2022-09-24T13:36:18.192Z,41.27
2022-09-24T13:38:29.302Z,40.61
2022-09-24T13:40:36.039Z,41.02
2022-09-24T13:42:46.473Z,40.90
2022-09-24T13:44:57.113Z,40.51
2022-09-24T13:47:21.521Z,40.58
2022-09-24T13:49:24.563Z,40.51
2022-09-24T13:51:30.849Z,40.49
2022-09-24T13:53:49.371Z,40.46
2022-09-24T13:55:57.220Z,40.49
2022-09-24T13:57:59.017Z,40.42
2022-09-24T14:00:20.790Z,40.64
2022-09-24T14:02:25.577Z,40.90
2022-09-24T14:04:27.790Z,40.61
2022-09-24T14:06:40.193Z,40.51
2022-09-24T14:08:45.135Z,40.77
2022-09-24T14:10:51.361Z,40.35
2022-09-24T14:13:02.263Z,40.26
2022-09-24T14:15:17.749Z,40.69
2022-09-24T14:17:20.103Z,40.31
2022-09-24T14:19:23.461Z,40.79
2022-09-24T14:21:38.182Z,40.33
2022-09-24T14:23:56.062Z,40.32
2022-09-24T14:26:00.031Z,40.50
2022-09-24T14:28:04.171Z,40.46
2022-09-24T14:30:08.295Z,40.50
2022-09-24T14:32:42.261Z,40.22
2022-09-24T14:34:44.420Z,40.67
2022-09-24T14:36:46.093Z,40.41
2022-09-24T14:38:58.006Z,40.39
2022-09-24T14:41:15.314Z,40.37
2022-09-24T14:43:31.314Z,40.43
2022-09-24T14:45:38.054Z,40.42
2022-09-24T14:47:39.801Z,40.81
2022-09-24T14:49:45.578Z,40.70
2022-09-24T14:51:54.763Z,40.26
2022-09-24T14:54:19.114Z,40.48
2022-09-24T14:56:27.303Z,40.59
2022-09-24T14:58:28.938Z,40.40
2022-09-24T15:00:46.789Z,40.40
2022-09-24T15:03:02.685Z,39.87
2022-09-24T15:05:09.961Z,40.31
2022-09-24T15:07:16.609Z,40.15
2022-09-24T15:09:32.804Z,40.02
2022-09-24T15:11:43.153Z,40.11
2022-09-24T15:13:45.560Z,40.33
2022-09-24T15:15:47.583Z,39.99
2022-09-24T15:17:49.114Z,40.33
2022-09-24T15:19:54.739Z,40.18
2022-09-24T15:22:00.225Z,40.38
2022-09-24T15:24:02.455Z,40.15
2022-09-24T15:26:04.717Z,40.45
2022-09-24T15:28:13.787Z,40.47
2022-09-24T15:30:20.562Z,40.35
2022-09-24T15:32:22.147Z,40.50
2022-09-24T15:34:23.899Z,40.20
2022-09-24T15:36:28.068Z,40.30
2022-09-24T15:38:30.061Z,40.42
2022-09-24T15:40:33.845Z,40.39
2022-09-24T15:42:35.484Z,40.35
2022-09-24T15:44:37.163Z,40.29
2022-09-24T15:46:38.750Z,40.79
2022-09-24T15:48:42.462Z,40.79
2022-09-24T15:50:46.367Z,40.67
2022-09-24T15:52:59.125Z,40.88
2022-09-24T15:55:02.628Z,40.75
2022-09-24T15:57:04.290Z,40.87
2022-09-24T15:59:14.482Z,40.91
2022-09-24T16:01:19.923Z,40.90
2022-09-24T16:03:29.980Z,41.12
2022-09-24T16:05:31.886Z,41.19
2022-09-24T16:07:33.409Z,41.33
2022-09-24T16:09:35.281Z,41.33
2022-09-24T16:11:36.860Z,41.41
2022-09-24T16:13:38.639Z,41.03
2022-09-24T16:15:40.871Z,41.24
2022-09-24T16:17:43.634Z,41.31
2022-09-24T16:19:45.344Z,41.25
2022-09-24T16:21:53.220Z,41.38
2022-09-24T16:23:56.094Z,41.43
2022-09-24T16:25:59.379Z,41.50
2022-09-24T16:28:01.485Z,41.57
2022-09-24T16:30:04.968Z,41.77
2022-09-24T16:32:06.927Z,41.55
2022-09-24T16:34:08.851Z,41.93
2022-09-24T16:36:11.078Z,41.71
2022-09-24T16:38:12.788Z,41.58
2022-09-24T16:40:15.501Z,42.17
2022-09-24T16:42:17.277Z,41.88
2022-09-24T16:44:19.462Z,41.85
2022-09-24T16:46:24.286Z,42.01
2022-09-24T16:48:26.080Z,41.99
2022-09-24T16:50:28.207Z,42.06
2022-09-24T16:52:31.426Z,42.29
2022-09-24T16:54:36.005Z,42.13
2022-09-24T16:56:38.601Z,42.41
2022-09-24T16:58:45.065Z,42.34
2022-09-24T17:00:46.505Z,42.28
2022-09-24T17:02:48.119Z,42.50
2022-09-24T17:04:49.949Z,42.52
2022-09-24T17:06:54.710Z,42.50
2022-09-24T17:09:18.121Z,42.34
2022-09-24T17:11:21.402Z,42.69
2022-09-24T17:13:23.159Z,42.62
2022-09-24T17:15:24.860Z,42.99
2022-09-24T17:17:26.404Z,42.71
2022-09-24T17:19:28.117Z,42.95
2022-09-24T17:21:29.910Z,43.10
2022-09-24T17:23:31.452Z,42.95
2022-09-24T17:25:33.068Z,43.35
2022-09-24T17:27:40.197Z,43.09
2022-09-24T17:29:43.037Z,43.32
2022-09-24T17:31:46.762Z,43.24
2022-09-24T17:33:55.807Z,43.38
2022-09-24T17:36:03.983Z,43.56
2022-09-24T17:38:07.790Z,43.60
2022-09-24T17:40:11.078Z,43.72
2022-09-24T17:42:12.875Z,43.94
2022-09-24T17:44:14.483Z,43.94
2022-09-24T17:46:21.621Z,43.86
2022-09-24T17:48:23.617Z,43.99
2022-09-24T17:50:25.220Z,43.70
2022-09-24T17:52:27.994Z,43.81
2022-09-24T17:54:32.029Z,43.98
2022-09-24T17:56:38.588Z,44.10
2022-09-24T17:58:44.722Z,44.21
2022-09-24T18:00:47.354Z,43.90
2022-09-24T18:02:56.668Z,44.28
2022-09-24T18:04:58.221Z,44.49
2022-09-24T18:07:00.004Z,44.28
2022-09-24T18:09:04.887Z,44.50
2022-09-24T18:11:13.188Z,44.45
2022-09-24T18:13:16.505Z,44.39
2022-09-24T18:15:18.232Z,44.41
2022-09-24T18:17:20.079Z,44.56
2022-09-24T18:19:23.237Z,44.48
2022-09-24T18:21:31.270Z,44.45
2022-09-24T18:23:35.215Z,44.71
2022-09-24T18:25:36.935Z,44.84
2022-09-24T18:27:38.552Z,44.91
2022-09-24T18:29:46.627Z,44.73
2022-09-24T18:31:51.757Z,44.98
2022-09-24T18:33:56.749Z,45.07
2022-09-24T18:36:02.544Z,45.19
2022-09-24T18:38:03.991Z,45.03
2022-09-24T18:40:06.300Z,45.29
2022-09-24T18:42:08.007Z,45.19
2022-09-24T18:44:15.332Z,45.27
2022-09-24T18:46:19.317Z,45.20
2022-09-24T18:48:21.375Z,45.38
2022-09-24T18:50:26.273Z,45.53
2022-09-24T18:52:28.855Z,45.20
2022-09-24T18:54:31.126Z,45.27
2022-09-24T18:56:33.370Z,45.69
2022-09-24T18:58:35.401Z,45.62
2022-09-24T19:00:51.071Z,45.85
2022-09-24T19:02:54.548Z,45.72
2022-09-24T19:04:59.064Z,45.46
2022-09-24T19:07:01.062Z,45.45
2022-09-24T19:09:07.731Z,45.85
2022-09-24T19:11:15.723Z,45.66
2022-09-24T19:13:23.939Z,45.85
2022-09-24T19:15:28.313Z,46.25
2022-09-24T19:17:30.164Z,46.08
2022-09-24T19:19:32.275Z,46.00
2022-09-24T19:21:37.200Z,46.19
2022-09-24T19:23:41.287Z,46.47
2022-09-24T19:25:49.310Z,46.03
2022-09-24T19:27:51.116Z,46.18
2022-09-24T19:29:53.776Z,46.53
2022-09-24T19:31:55.313Z,46.33
2022-09-24T19:33:58.674Z,46.42
2022-09-24T19:36:02.938Z,46.55
2022-09-24T19:38:04.639Z,46.42
2022-09-24T19:40:13.199Z,46.58
2022-09-24T19:42:15.134Z,46.67
2022-09-24T19:44:17.386Z,46.74
2022-09-24T19:46:24.140Z,46.99
2022-09-24T19:48:30.984Z,46.58
2022-09-24T19:50:34.388Z,46.83
2022-09-24T19:52:35.876Z,46.90
2022-09-24T19:54:40.782Z,46.94
2022-09-24T19:56:42.337Z,46.92
2022-09-24T19:58:47.273Z,47.41
2022-09-24T20:00:49.058Z,47.36
2022-09-24T20:02:51.843Z,47.11
2022-09-24T20:04:56.472Z,47.56
2022-09-24T20:07:02.316Z,47.34
2022-09-24T20:09:09.554Z,47.61
2022-09-24T20:11:15.085Z,47.38
2022-09-24T20:13:17.115Z,47.52
2022-09-24T20:15:22.255Z,47.42
2022-09-24T20:17:24.055Z,47.37
2022-09-24T20:19:26.009Z,47.20
2022-09-24T20:21:35.062Z,47.48
2022-09-24T20:23:42.404Z,47.82
2022-09-24T20:26:14.680Z,47.80
2022-09-24T20:28:19.551Z,47.52
2022-09-24T20:30:23.901Z,47.79
2022-09-24T20:32:25.479Z,47.94
2022-09-24T20:34:43.579Z,48.12
2022-09-24T20:36:45.177Z,47.93
2022-09-24T20:38:47.826Z,47.76
2022-09-24T20:40:49.753Z,47.77
2022-09-24T20:42:51.480Z,47.84
2022-09-24T20:44:53.546Z,48.13
2022-09-24T20:46:58.095Z,48.32
2022-09-24T20:49:03.275Z,48.28
2022-09-24T20:51:13.652Z,48.39
2022-09-24T20:53:15.337Z,48.16
2022-09-24T20:55:17.038Z,48.44
2022-09-24T20:57:18.712Z,48.32
2022-09-24T20:59:20.540Z,48.55
2022-09-24T21:01:22.530Z,48.66
2022-09-24T21:03:43.260Z,48.57
2022-09-24T21:05:49.156Z,48.61
2022-09-24T21:07:55.339Z,48.77
2022-09-24T21:09:57.091Z,48.75
2022-09-24T21:11:58.594Z,48.97
2022-09-24T21:14:03.854Z,48.91
2022-09-24T21:16:05.648Z,48.87
2022-09-24T21:18:22.398Z,49.17
2022-09-24T21:20:28.850Z,49.18
2022-09-24T21:22:30.342Z,49.03
2022-09-24T21:24:32.052Z,49.35
2022-09-24T21:26:36.289Z,49.21
2022-09-24T21:28:37.984Z,49.10
2022-09-24T21:30:42.538Z,49.28
2022-09-24T21:32:45.086Z,49.39
2022-09-24T21:34:46.797Z,49.22
2022-09-24T21:36:48.738Z,49.24
2022-09-24T21:38:58.557Z,49.71
2022-09-24T21:41:01.253Z,49.56
2022-09-24T21:43:05.868Z,49.54
2022-09-24T21:45:08.278Z,49.51
2022-09-24T21:47:09.783Z,49.59
2022-09-24T21:49:16.312Z,49.96
2022-09-24T21:51:21.988Z,49.96
2022-09-24T21:53:23.547Z,49.96
2022-09-24T21:55:25.688Z,49.89
2022-09-24T21:57:27.301Z,50.02
2022-09-24T21:59:47.613Z,49.84
2022-09-24T22:01:49.407Z,49.90
2022-09-24T22:03:52.515Z,49.89
2022-09-24T22:05:55.077Z,49.86
2022-09-24T22:07:56.637Z,50.26
2022-09-24T22:09:59.373Z,50.27
2022-09-24T22:12:04.542Z,50.07
2022-09-24T22:14:06.338Z,50.24
2022-09-24T22:16:10.678Z,50.19
2022-09-24T22:18:12.164Z,50.36
2022-09-24T22:20:13.907Z,50.41
2022-09-24T22:22:16.698Z,50.22
2022-09-24T22:24:21.298Z,50.46
2022-09-24T22:26:27.260Z,50.53
2022-09-24T22:28:29.469Z,50.65
2022-09-24T22:30:34.178Z,50.70
2022-09-24T22:32:35.863Z,50.48
2022-09-24T22:34:56.227Z,50.77
2022-09-24T22:36:57.785Z,50.47
2022-09-24T22:39:00.564Z,50.58
2022-09-24T22:41:03.991Z,50.94
2022-09-24T22:43:08.289Z,50.72
2022-09-24T22:45:13.671Z,50.73
2022-09-24T22:47:15.143Z,50.83
2022-09-24T22:49:19.670Z,50.89
2022-09-24T22:51:21.763Z,50.94
2022-09-24T22:53:23.480Z,50.81
2022-09-24T22:55:25.100Z,50.88
2022-09-24T22:57:29.504Z,50.75
2022-09-24T22:59:31.445Z,50.94
2022-09-24T23:01:38.990Z,51.18
2022-09-24T23:03:41.220Z,50.93
2022-09-24T23:05:43.147Z,51.13
2022-09-24T23:07:44.932Z,51.01
2022-09-24T23:09:47.409Z,51.13
2022-09-24T23:11:48.823Z,51.05
2022-09-24T23:13:59.737Z,51.34
2022-09-24T23:16:34.700Z,51.28
2022-09-24T23:18:37.641Z,51.13
2022-09-24T23:20:39.152Z,51.07
2022-09-24T23:22:40.721Z,51.35
2022-09-24T23:24:42.838Z,51.37
2022-09-24T23:26:45.467Z,51.33
2022-09-24T23:29:00.950Z,51.51
2022-09-24T23:31:06.460Z,51.33
2022-09-24T23:33:07.884Z,51.35
2022-09-24T23:35:12.383Z,51.45
2022-09-24T23:37:13.911Z,51.56
2022-09-24T23:39:15.418Z,51.29
2022-09-24T23:41:17.384Z,51.42
2022-09-24T23:43:19.855Z,51.43
2022-09-24T23:45:21.589Z,51.47
2022-09-24T23:47:23.219Z,51.38
2022-09-24T23:49:24.765Z,51.45
2022-09-24T23:51:26.433Z,51.44
2022-09-24T23:53:28.082Z,51.66
2022-09-24T23:55:29.596Z,51.60
2022-09-24T23:57:31.015Z,51.71
2022-09-24T23:59:32.921Z,51.74
